sensor_id;sensor_type;location;lat;lon;timestamp;P1;durP1;ratioP1;P2;durP2;ratioP2
50880;SDS011;36858;47.832;-3.800;2023-04-06T06:18:39;7.00;;;3.07;;
50880;SDS011;36858;47.832;-3.800;2023-04-06T06:21:06;5.50;;;3.60;;
50880;SDS011;36858;47.832;-3.800;2023-04-06T06:23:32;6.03;;;3.53;;
50880;SDS011;36858;47.832;-3.800;2023-04-06T06:25:59;6.03;;;3.07;;
50880;SDS011;36858;47.832;-3.800;2023-04-06T06:28:27;5.33;;;3.30;;
50880;SDS011;36858;47.832;-3.800;2023-04-06T06:30:54;6.50;;;3.43;;
50880;SDS011;36858;47.832;-3.800;2023-04-06T06:33:21;4.73;;;2.83;;
50880;SDS011;36858;47.832;-3.800;2023-04-06T06:35:48;5.70;;;3.10;;
50880;SDS011;36858;47.832;-3.800;2023-04-06T06:38:15;5.17;;;2.83;;
50880;SDS011;36858;47.832;-3.800;2023-04-06T06:40:42;6.03;;;3.13;;
50880;SDS011;36858;47.832;-3.800;2023-04-06T06:43:09;6.63;;;3.20;;
50880;SDS011;36858;47.832;-3.800;2023-04-06T06:45:36;7.83;;;3.30;;
50880;SDS011;36858;47.832;-3.800;2023-04-06T06:48:03;7.93;;;3.57;;
50880;SDS011;36858;47.832;-3.800;2023-04-06T06:50:30;2.60;;;2.40;;
50880;SDS011;36858;47.832;-3.800;2023-04-06T06:52:56;5.00;;;2.53;;
50880;SDS011;36858;47.832;-3.800;2023-04-06T06:55:23;6.37;;;3.30;;
50880;SDS011;36858;47.832;-3.800;2023-04-06T06:57:52;6.03;;;3.10;;
50880;SDS011;36858;47.832;-3.800;2023-04-06T07:00:19;7.60;;;2.97;;
50880;SDS011;36858;47.832;-3.800;2023-04-06T07:02:49;4.37;;;3.03;;
50880;SDS011;36858;47.832;-3.800;2023-04-06T07:05:17;5.43;;;2.80;;
50880;SDS011;36858;47.832;-3.800;2023-04-06T07:07:54;7.43;;;2.57;;
50880;SDS011;36858;47.832;-3.800;2023-04-06T07:10:21;6.60;;;2.90;;
50880;SDS011;36858;47.832;-3.800;2023-04-06T07:12:48;7.63;;;2.73;;
50880;SDS011;36858;47.832;-3.800;2023-04-06T07:15:16;8.43;;;3.30;;
50880;SDS011;36858;47.832;-3.800;2023-04-06T07:17:43;6.40;;;3.20;;
50880;SDS011;36858;47.832;-3.800;2023-04-06T07:20:13;5.97;;;2.90;;
50880;SDS011;36858;47.832;-3.800;2023-04-06T07:22:41;6.27;;;3.07;;
50880;SDS011;36858;47.832;-3.800;2023-04-06T07:25:09;8.20;;;3.43;;
50880;SDS011;36858;47.832;-3.800;2023-04-06T07:27:36;10.87;;;2.77;;
50880;SDS011;36858;47.832;-3.800;2023-04-06T07:30:03;9.67;;;3.53;;
50880;SDS011;36858;47.832;-3.800;2023-04-06T07:32:30;10.00;;;3.33;;
50880;SDS011;36858;47.832;-3.800;2023-04-06T07:34:57;7.97;;;2.70;;
50880;SDS011;36858;47.832;-3.800;2023-04-06T07:37:24;8.20;;;3.83;;
50880;SDS011;36858;47.832;-3.800;2023-04-06T07:39:51;5.63;;;3.23;;
50880;SDS011;36858;47.832;-3.800;2023-04-06T07:42:18;6.53;;;3.13;;
50880;SDS011;36858;47.832;-3.800;2023-04-06T07:44:45;9.00;;;3.60;;
50880;SDS011;36858;47.832;-3.800;2023-04-06T07:47:12;7.20;;;3.20;;
50880;SDS011;36858;47.832;-3.800;2023-04-06T07:49:39;8.63;;;3.23;;
50880;SDS011;36858;47.832;-3.800;2023-04-06T07:52:06;5.33;;;3.30;;
50880;SDS011;36858;47.832;-3.800;2023-04-06T07:54:33;8.20;;;3.87;;
50880;SDS011;36858;47.832;-3.800;2023-04-06T07:57:00;7.40;;;2.67;;
50880;SDS011;36858;47.832;-3.800;2023-04-06T07:59:27;3.27;;;2.33;;
50880;SDS011;36858;47.832;-3.800;2023-04-06T08:01:54;4.97;;;2.50;;
50880;SDS011;36858;47.832;-3.800;2023-04-06T08:04:21;4.80;;;2.50;;
50880;SDS011;36858;47.832;-3.800;2023-04-06T08:06:48;3.63;;;2.43;;
50880;SDS011;36858;47.832;-3.800;2023-04-06T08:09:15;5.20;;;2.37;;
50880;SDS011;36858;47.832;-3.800;2023-04-06T08:11:42;5.73;;;2.17;;
50880;SDS011;36858;47.832;-3.800;2023-04-06T08:14:11;15.97;;;3.87;;
50880;SDS011;36858;47.832;-3.800;2023-04-06T08:16:38;9.23;;;3.27;;
50880;SDS011;36858;47.832;-3.800;2023-04-06T08:19:05;9.90;;;3.40;;
50880;SDS011;36858;47.832;-3.800;2023-04-06T08:21:33;8.23;;;2.87;;
50880;SDS011;36858;47.832;-3.800;2023-04-06T08:24:01;9.03;;;2.50;;
50880;SDS011;36858;47.832;-3.800;2023-04-06T08:26:28;6.97;;;3.00;;
50880;SDS011;36858;47.832;-3.800;2023-04-06T08:28:55;4.50;;;2.47;;
50880;SDS011;36858;47.832;-3.800;2023-04-06T08:31:22;6.00;;;2.60;;
50880;SDS011;36858;47.832;-3.800;2023-04-06T08:33:49;3.13;;;1.90;;
50880;SDS011;36858;47.832;-3.800;2023-04-06T08:36:16;6.40;;;2.30;;
50880;SDS011;36858;47.832;-3.800;2023-04-06T08:38:46;6.47;;;2.90;;
50880;SDS011;36858;47.832;-3.800;2023-04-06T08:41:15;8.40;;;2.60;;
50880;SDS011;36858;47.832;-3.800;2023-04-06T08:43:54;4.43;;;2.53;;
50880;SDS011;36858;47.832;-3.800;2023-04-06T08:46:26;4.03;;;2.37;;
50880;SDS011;36858;47.832;-3.800;2023-04-06T08:48:58;4.37;;;2.47;;
50880;SDS011;36858;47.832;-3.800;2023-04-06T08:51:26;4.23;;;2.43;;
50880;SDS011;36858;47.832;-3.800;2023-04-06T08:53:55;5.70;;;1.93;;
50880;SDS011;36858;47.832;-3.800;2023-04-06T08:56:24;4.00;;;1.73;;
50880;SDS011;36858;47.832;-3.800;2023-04-06T08:58:52;3.33;;;1.60;;
50880;SDS011;36858;47.832;-3.800;2023-04-06T09:01:22;5.90;;;1.20;;
50880;SDS011;36858;47.832;-3.800;2023-04-06T09:03:56;5.03;;;1.03;;
50880;SDS011;36858;47.832;-3.800;2023-04-06T09:06:25;4.80;;;2.17;;
50880;SDS011;36858;47.832;-3.800;2023-04-06T09:08:57;2.60;;;2.10;;
50880;SDS011;36858;47.832;-3.800;2023-04-06T09:11:25;2.63;;;1.30;;
50880;SDS011;36858;47.832;-3.800;2023-04-06T09:13:53;2.10;;;1.00;;
50880;SDS011;36858;47.832;-3.800;2023-04-06T09:16:21;90.80;;;13.27;;
50880;SDS011;36858;47.832;-3.800;2023-04-06T09:18:49;23.60;;;4.67;;
50880;SDS011;36858;47.832;-3.800;2023-04-06T09:21:21;91.07;;;14.63;;
50880;SDS011;36858;47.832;-3.800;2023-04-06T09:24:00;16.97;;;4.87;;
50880;SDS011;36858;47.832;-3.800;2023-04-06T09:26:28;17.33;;;3.83;;
50880;SDS011;36858;47.832;-3.800;2023-04-06T09:28:57;11.10;;;2.43;;
50880;SDS011;36858;47.832;-3.800;2023-04-06T09:31:29;66.00;;;13.77;;
50880;SDS011;36858;47.832;-3.800;2023-04-06T09:33:59;84.20;;;21.97;;
50880;SDS011;36858;47.832;-3.800;2023-04-06T09:36:33;75.43;;;18.77;;
50880;SDS011;36858;47.832;-3.800;2023-04-06T09:39:02;12.80;;;4.83;;
50880;SDS011;36858;47.832;-3.800;2023-04-06T09:41:31;7.63;;;2.17;;
50880;SDS011;36858;47.832;-3.800;2023-04-06T09:44:16;6.80;;;1.07;;
50880;SDS011;36858;47.832;-3.800;2023-04-06T09:46:44;1.37;;;0.87;;
50880;SDS011;36858;47.832;-3.800;2023-04-06T09:49:30;2.97;;;1.27;;
50880;SDS011;36858;47.832;-3.800;2023-04-06T09:52:03;3.50;;;0.70;;
50880;SDS011;36858;47.832;-3.800;2023-04-06T09:54:33;2.90;;;1.37;;
50880;SDS011;36858;47.832;-3.800;2023-04-06T09:57:23;1.90;;;0.87;;
50880;SDS011;36858;47.832;-3.800;2023-04-06T10:03:02;1.67;;;0.67;;
50880;SDS011;36858;47.832;-3.800;2023-04-06T10:05:52;1.60;;;0.93;;
50880;SDS011;36858;47.832;-3.800;2023-04-06T10:08:22;2.50;;;0.70;;
50880;SDS011;36858;47.832;-3.800;2023-04-06T10:10:51;2.20;;;0.70;;
50880;SDS011;36858;47.832;-3.800;2023-04-06T10:13:19;3.70;;;1.17;;
50880;SDS011;36858;47.832;-3.800;2023-04-06T10:15:46;1.50;;;0.60;;
50880;SDS011;36858;47.832;-3.800;2023-04-06T10:18:13;1.33;;;0.73;;
50880;SDS011;36858;47.832;-3.800;2023-04-06T10:20:53;1.27;;;0.63;;
50880;SDS011;36858;47.832;-3.800;2023-04-06T10:26:16;6.27;;;1.93;;
50880;SDS011;36858;47.832;-3.800;2023-04-06T10:28:47;5.57;;;1.03;;
50880;SDS011;36858;47.832;-3.800;2023-04-06T10:31:23;3.53;;;1.53;;
50880;SDS011;36858;47.832;-3.800;2023-04-06T10:33:55;5.50;;;1.07;;
50880;SDS011;36858;47.832;-3.800;2023-04-06T10:36:27;3.80;;;1.43;;
50880;SDS011;36858;47.832;-3.800;2023-04-06T10:38:59;4.83;;;1.10;;
50880;SDS011;36858;47.832;-3.800;2023-04-06T10:41:40;2.00;;;0.63;;
50880;SDS011;36858;47.832;-3.800;2023-04-06T10:44:16;2.37;;;0.80;;
50880;SDS011;36858;47.832;-3.800;2023-04-06T10:46:53;2.67;;;0.73;;
50880;SDS011;36858;47.832;-3.800;2023-04-06T10:49:29;2.23;;;0.70;;
50880;SDS011;36858;47.832;-3.800;2023-04-06T10:51:56;3.07;;;0.73;;
50880;SDS011;36858;47.832;-3.800;2023-04-06T10:54:24;4.40;;;1.17;;
50880;SDS011;36858;47.832;-3.800;2023-04-06T10:56:52;1.57;;;0.83;;
50880;SDS011;36858;47.832;-3.800;2023-04-06T10:59:20;3.60;;;1.00;;
50880;SDS011;36858;47.832;-3.800;2023-04-06T11:01:48;3.80;;;0.90;;
50880;SDS011;36858;47.832;-3.800;2023-04-06T11:04:19;3.83;;;1.00;;
50880;SDS011;36858;47.832;-3.800;2023-04-06T11:06:47;4.00;;;0.77;;
50880;SDS011;36858;47.832;-3.800;2023-04-06T11:09:29;1.97;;;0.80;;
50880;SDS011;36858;47.832;-3.800;2023-04-06T11:11:58;1.30;;;0.90;;
50880;SDS011;36858;47.832;-3.800;2023-04-06T11:14:25;3.97;;;1.17;;
50880;SDS011;36858;47.832;-3.800;2023-04-06T11:16:53;6.30;;;1.30;;
50880;SDS011;36858;47.832;-3.800;2023-04-06T11:19:20;6.63;;;1.93;;
50880;SDS011;36858;47.832;-3.800;2023-04-06T11:21:47;6.40;;;1.50;;
50880;SDS011;36858;47.832;-3.800;2023-04-06T11:24:16;4.13;;;1.63;;
50880;SDS011;36858;47.832;-3.800;2023-04-06T11:26:50;2.83;;;1.07;;
50880;SDS011;36858;47.832;-3.800;2023-04-06T11:29:18;2.17;;;1.23;;
50880;SDS011;36858;47.832;-3.800;2023-04-06T11:31:50;3.83;;;1.13;;
50880;SDS011;36858;47.832;-3.800;2023-04-06T11:34:32;1.77;;;0.90;;
50880;SDS011;36858;47.832;-3.800;2023-04-06T11:37:04;3.57;;;0.90;;
50880;SDS011;36858;47.832;-3.800;2023-04-06T11:39:39;2.23;;;0.80;;
50880;SDS011;36858;47.832;-3.800;2023-04-06T11:42:12;2.73;;;0.80;;
50880;SDS011;36858;47.832;-3.800;2023-04-06T11:44:39;0.60;;;0.60;;
50880;SDS011;36858;47.832;-3.800;2023-04-06T11:47:12;2.33;;;0.70;;
50880;SDS011;36858;47.832;-3.800;2023-04-06T11:49:40;7.50;;;1.43;;
50880;SDS011;36858;47.832;-3.800;2023-04-06T11:52:22;3.30;;;1.43;;
50880;SDS011;36858;47.832;-3.800;2023-04-06T11:54:51;6.30;;;1.20;;
50880;SDS011;36858;47.832;-3.800;2023-04-06T11:57:19;4.07;;;1.30;;
50880;SDS011;36858;47.832;-3.800;2023-04-06T11:59:47;8.63;;;2.37;;
50880;SDS011;36858;47.832;-3.800;2023-04-06T12:02:14;4.17;;;1.00;;
50880;SDS011;36858;47.832;-3.800;2023-04-06T12:04:41;4.03;;;1.37;;
50880;SDS011;36858;47.832;-3.800;2023-04-06T12:07:08;2.10;;;0.83;;
50880;SDS011;36858;47.832;-3.800;2023-04-06T12:09:35;6.27;;;1.33;;
50880;SDS011;36858;47.832;-3.800;2023-04-06T12:12:03;3.03;;;1.37;;
50880;SDS011;36858;47.832;-3.800;2023-04-06T12:14:30;2.10;;;1.00;;
50880;SDS011;36858;47.832;-3.800;2023-04-06T12:16:57;2.67;;;0.83;;
50880;SDS011;36858;47.832;-3.800;2023-04-06T12:19:25;2.97;;;1.10;;
50880;SDS011;36858;47.832;-3.800;2023-04-06T12:21:52;3.83;;;1.30;;
50880;SDS011;36858;47.832;-3.800;2023-04-06T12:24:20;2.10;;;0.80;;
50880;SDS011;36858;47.832;-3.800;2023-04-06T12:26:47;1.63;;;0.87;;
50880;SDS011;36858;47.832;-3.800;2023-04-06T12:29:19;1.90;;;0.63;;
50880;SDS011;36858;47.832;-3.800;2023-04-06T12:31:46;1.70;;;0.67;;
50880;SDS011;36858;47.832;-3.800;2023-04-06T12:34:13;3.47;;;0.70;;
50880;SDS011;36858;47.832;-3.800;2023-04-06T12:36:40;2.77;;;0.80;;
50880;SDS011;36858;47.832;-3.800;2023-04-06T12:39:07;4.17;;;1.17;;
50880;SDS011;36858;47.832;-3.800;2023-04-06T12:41:34;3.87;;;1.10;;
50880;SDS011;36858;47.832;-3.800;2023-04-06T12:44:02;7.50;;;1.20;;
50880;SDS011;36858;47.832;-3.800;2023-04-06T12:46:29;2.57;;;1.50;;
50880;SDS011;36858;47.832;-3.800;2023-04-06T12:48:57;4.47;;;1.10;;
50880;SDS011;36858;47.832;-3.800;2023-04-06T12:51:28;3.30;;;0.93;;
50880;SDS011;36858;47.832;-3.800;2023-04-06T12:53:55;5.27;;;1.37;;
50880;SDS011;36858;47.832;-3.800;2023-04-06T12:56:22;7.83;;;1.93;;
50880;SDS011;36858;47.832;-3.800;2023-04-06T12:58:50;3.20;;;1.07;;
50880;SDS011;36858;47.832;-3.800;2023-04-06T13:01:18;12.90;;;2.80;;
50880;SDS011;36858;47.832;-3.800;2023-04-06T13:03:45;9.10;;;2.90;;
50880;SDS011;36858;47.832;-3.800;2023-04-06T13:06:12;3.37;;;1.40;;
50880;SDS011;36858;47.832;-3.800;2023-04-06T13:08:41;5.77;;;1.40;;
50880;SDS011;36858;47.832;-3.800;2023-04-06T13:11:09;3.13;;;1.13;;
50880;SDS011;36858;47.832;-3.800;2023-04-06T13:13:36;6.57;;;1.87;;
50880;SDS011;36858;47.832;-3.800;2023-04-06T13:16:04;6.57;;;2.57;;
50880;SDS011;36858;47.832;-3.800;2023-04-06T13:18:35;5.80;;;1.70;;
50880;SDS011;36858;47.832;-3.800;2023-04-06T13:21:05;4.93;;;1.30;;
50880;SDS011;36858;47.832;-3.800;2023-04-06T13:23:32;4.20;;;1.07;;
50880;SDS011;36858;47.832;-3.800;2023-04-06T13:26:00;4.60;;;1.50;;
50880;SDS011;36858;47.832;-3.800;2023-04-06T13:28:30;4.10;;;1.00;;
50880;SDS011;36858;47.832;-3.800;2023-04-06T13:31:00;4.80;;;1.20;;
50880;SDS011;36858;47.832;-3.800;2023-04-06T13:33:28;3.80;;;1.37;;
50880;SDS011;36858;47.832;-3.800;2023-04-06T13:35:56;12.40;;;2.10;;
50880;SDS011;36858;47.832;-3.800;2023-04-06T13:38:23;3.93;;;1.30;;
50880;SDS011;36858;47.832;-3.800;2023-04-06T13:40:50;8.87;;;1.80;;
50880;SDS011;36858;47.832;-3.800;2023-04-06T13:43:17;5.07;;;1.40;;
50880;SDS011;36858;47.832;-3.800;2023-04-06T13:45:53;3.63;;;1.27;;
50880;SDS011;36858;47.832;-3.800;2023-04-06T13:48:26;4.43;;;1.33;;
50880;SDS011;36858;47.832;-3.800;2023-04-06T13:50:53;7.33;;;2.17;;
50880;SDS011;36858;47.832;-3.800;2023-04-06T13:53:20;7.13;;;1.77;;
50880;SDS011;36858;47.832;-3.800;2023-04-06T13:55:53;5.57;;;1.40;;
50880;SDS011;36858;47.832;-3.800;2023-04-06T13:58:20;5.33;;;1.30;;
50880;SDS011;36858;47.832;-3.800;2023-04-06T14:00:47;6.80;;;1.50;;
50880;SDS011;36858;47.832;-3.800;2023-04-06T14:03:15;5.37;;;1.60;;
50880;SDS011;36858;47.832;-3.800;2023-04-06T14:05:42;7.20;;;1.60;;
50880;SDS011;36858;47.832;-3.800;2023-04-06T14:08:09;5.97;;;1.13;;
50880;SDS011;36858;47.832;-3.800;2023-04-06T14:10:36;2.87;;;1.00;;
50880;SDS011;36858;47.832;-3.800;2023-04-06T14:13:09;3.63;;;1.27;;
50880;SDS011;36858;47.832;-3.800;2023-04-06T14:15:36;3.93;;;1.67;;
50880;SDS011;36858;47.832;-3.800;2023-04-06T14:18:03;4.60;;;1.20;;
50880;SDS011;36858;47.832;-3.800;2023-04-06T14:20:31;4.87;;;1.17;;
50880;SDS011;36858;47.832;-3.800;2023-04-06T14:23:01;4.43;;;1.37;;
50880;SDS011;36858;47.832;-3.800;2023-04-06T14:25:29;5.83;;;1.47;;
50880;SDS011;36858;47.832;-3.800;2023-04-06T14:27:58;3.87;;;1.60;;
50880;SDS011;36858;47.832;-3.800;2023-04-06T14:30:25;6.67;;;1.37;;
50880;SDS011;36858;47.832;-3.800;2023-04-06T14:32:52;5.73;;;1.87;;
50880;SDS011;36858;47.832;-3.800;2023-04-06T14:35:19;4.40;;;1.73;;
50880;SDS011;36858;47.832;-3.800;2023-04-06T14:37:46;4.53;;;1.53;;
50880;SDS011;36858;47.832;-3.800;2023-04-06T14:40:13;7.57;;;1.47;;
50880;SDS011;36858;47.832;-3.800;2023-04-06T14:42:40;6.80;;;1.37;;
50880;SDS011;36858;47.832;-3.800;2023-04-06T14:45:07;5.17;;;1.23;;
50880;SDS011;36858;47.832;-3.800;2023-04-06T14:47:34;3.43;;;1.00;;
50880;SDS011;36858;47.832;-3.800;2023-04-06T14:50:01;4.93;;;1.30;;
50880;SDS011;36858;47.832;-3.800;2023-04-06T14:52:28;4.40;;;1.10;;
50880;SDS011;36858;47.832;-3.800;2023-04-06T14:54:58;4.03;;;0.97;;
50880;SDS011;36858;47.832;-3.800;2023-04-06T14:57:25;5.53;;;1.00;;
50880;SDS011;36858;47.832;-3.800;2023-04-06T14:59:54;3.80;;;0.90;;
50880;SDS011;36858;47.832;-3.800;2023-04-06T15:02:21;3.20;;;1.27;;
50880;SDS011;36858;47.832;-3.800;2023-04-06T15:04:49;5.53;;;1.30;;
50880;SDS011;36858;47.832;-3.800;2023-04-06T15:07:17;5.27;;;1.23;;
50880;SDS011;36858;47.832;-3.800;2023-04-06T15:09:44;4.10;;;1.23;;
50880;SDS011;36858;47.832;-3.800;2023-04-06T15:12:11;3.73;;;1.27;;
50880;SDS011;36858;47.832;-3.800;2023-04-06T15:14:38;3.90;;;1.20;;
50880;SDS011;36858;47.832;-3.800;2023-04-06T15:17:05;3.33;;;1.87;;
50880;SDS011;36858;47.832;-3.800;2023-04-06T15:19:32;2.83;;;1.00;;
50880;SDS011;36858;47.832;-3.800;2023-04-06T15:21:58;2.30;;;1.20;;
50880;SDS011;36858;47.832;-3.800;2023-04-06T15:24:26;5.43;;;1.13;;
50880;SDS011;36858;47.832;-3.800;2023-04-06T15:26:53;5.57;;;1.30;;
50880;SDS011;36858;47.832;-3.800;2023-04-06T15:29:20;4.93;;;1.60;;
50880;SDS011;36858;47.832;-3.800;2023-04-06T15:31:48;2.30;;;0.97;;
50880;SDS011;36858;47.832;-3.800;2023-04-06T15:34:15;4.33;;;1.37;;
50880;SDS011;36858;47.832;-3.800;2023-04-06T15:36:42;9.00;;;1.47;;
50880;SDS011;36858;47.832;-3.800;2023-04-06T15:39:10;5.43;;;1.50;;
50880;SDS011;36858;47.832;-3.800;2023-04-06T15:41:36;3.10;;;1.07;;
50880;SDS011;36858;47.832;-3.800;2023-04-06T15:44:03;3.10;;;1.00;;
50880;SDS011;36858;47.832;-3.800;2023-04-06T15:46:30;3.83;;;1.10;;
50880;SDS011;36858;47.832;-3.800;2023-04-06T15:48:57;4.50;;;1.87;;
50880;SDS011;36858;47.832;-3.800;2023-04-06T15:51:24;4.10;;;0.97;;
50880;SDS011;36858;47.832;-3.800;2023-04-06T15:53:51;7.63;;;1.67;;
50880;SDS011;36858;47.832;-3.800;2023-04-06T15:56:18;8.27;;;2.50;;
50880;SDS011;36858;47.832;-3.800;2023-04-06T15:58:46;5.37;;;1.70;;
50880;SDS011;36858;47.832;-3.800;2023-04-06T16:01:14;4.53;;;1.70;;
50880;SDS011;36858;47.832;-3.800;2023-04-06T16:03:43;4.00;;;1.47;;
50880;SDS011;36858;47.832;-3.800;2023-04-06T16:06:11;4.07;;;1.43;;
50880;SDS011;36858;47.832;-3.800;2023-04-06T16:08:38;5.13;;;1.40;;
50880;SDS011;36858;47.832;-3.800;2023-04-06T16:11:05;9.10;;;6.00;;
50880;SDS011;36858;47.832;-3.800;2023-04-06T16:13:33;11.33;;;7.00;;
50880;SDS011;36858;47.832;-3.800;2023-04-06T16:16:00;5.13;;;2.03;;
50880;SDS011;36858;47.832;-3.800;2023-04-06T16:18:27;5.40;;;1.33;;
50880;SDS011;36858;47.832;-3.800;2023-04-06T16:20:54;23.40;;;2.93;;
50880;SDS011;36858;47.832;-3.800;2023-04-06T16:23:20;14.27;;;3.83;;
50880;SDS011;36858;47.832;-3.800;2023-04-06T16:25:47;13.83;;;5.47;;
50880;SDS011;36858;47.832;-3.800;2023-04-06T16:28:16;13.07;;;7.07;;
50880;SDS011;36858;47.832;-3.800;2023-04-06T16:30:43;52.40;;;33.33;;
50880;SDS011;36858;47.832;-3.800;2023-04-06T16:33:12;39.13;;;24.27;;
50880;SDS011;36858;47.832;-3.800;2023-04-06T16:35:43;37.57;;;27.67;;
50880;SDS011;36858;47.832;-3.800;2023-04-06T16:38:13;31.40;;;21.97;;
50880;SDS011;36858;47.832;-3.800;2023-04-06T16:40:40;13.77;;;7.23;;
50880;SDS011;36858;47.832;-3.800;2023-04-06T16:43:07;10.40;;;3.97;;
50880;SDS011;36858;47.832;-3.800;2023-04-06T16:45:35;8.53;;;4.27;;
50880;SDS011;36858;47.832;-3.800;2023-04-06T16:48:04;13.33;;;7.63;;
50880;SDS011;36858;47.832;-3.800;2023-04-06T16:50:31;18.30;;;11.27;;
50880;SDS011;36858;47.832;-3.800;2023-04-06T16:52:58;11.00;;;6.40;;
50880;SDS011;36858;47.832;-3.800;2023-04-06T16:55:25;21.87;;;13.23;;
50880;SDS011;36858;47.832;-3.800;2023-04-06T16:57:55;15.83;;;9.67;;
50880;SDS011;36858;47.832;-3.800;2023-04-06T17:00:22;7.80;;;2.50;;
50880;SDS011;36858;47.832;-3.800;2023-04-06T17:02:49;4.53;;;1.00;;
50880;SDS011;36858;47.832;-3.800;2023-04-06T17:05:16;5.60;;;1.40;;
50880;SDS011;36858;47.832;-3.800;2023-04-06T17:07:50;28.33;;;18.33;;
50880;SDS011;36858;47.832;-3.800;2023-04-06T17:10:17;16.63;;;9.30;;
50880;SDS011;36858;47.832;-3.800;2023-04-06T17:12:58;40.87;;;27.87;;
50880;SDS011;36858;47.832;-3.800;2023-04-06T17:15:25;50.37;;;31.67;;
50880;SDS011;36858;47.832;-3.800;2023-04-06T17:17:54;24.80;;;14.00;;
50880;SDS011;36858;47.832;-3.800;2023-04-06T17:20:20;5.07;;;3.00;;
50880;SDS011;36858;47.832;-3.800;2023-04-06T17:22:47;2.60;;;1.10;;
50880;SDS011;36858;47.832;-3.800;2023-04-06T17:25:15;4.47;;;1.60;;
50880;SDS011;36858;47.832;-3.800;2023-04-06T17:27:42;5.97;;;1.60;;
50880;SDS011;36858;47.832;-3.800;2023-04-06T17:30:10;5.23;;;1.47;;
50880;SDS011;36858;47.832;-3.800;2023-04-06T17:32:37;4.97;;;2.77;;
50880;SDS011;36858;47.832;-3.800;2023-04-06T17:35:04;21.03;;;13.43;;
50880;SDS011;36858;47.832;-3.800;2023-04-06T17:37:32;22.73;;;13.70;;
50880;SDS011;36858;47.832;-3.800;2023-04-06T17:39:58;16.93;;;11.43;;
50880;SDS011;36858;47.832;-3.800;2023-04-06T17:42:25;17.53;;;9.33;;
50880;SDS011;36858;47.832;-3.800;2023-04-06T17:44:53;8.60;;;4.00;;
50880;SDS011;36858;47.832;-3.800;2023-04-06T17:47:20;10.37;;;5.00;;
50880;SDS011;36858;47.832;-3.800;2023-04-06T17:49:46;7.37;;;2.13;;
50880;SDS011;36858;47.832;-3.800;2023-04-06T17:52:14;5.67;;;1.80;;
50880;SDS011;36858;47.832;-3.800;2023-04-06T17:54:41;2.23;;;1.30;;
50880;SDS011;36858;47.832;-3.800;2023-04-06T17:57:08;5.97;;;1.27;;
50880;SDS011;36858;47.832;-3.800;2023-04-06T17:59:35;5.47;;;1.30;;
50880;SDS011;36858;47.832;-3.800;2023-04-06T18:02:02;3.73;;;1.30;;
50880;SDS011;36858;47.832;-3.800;2023-04-06T18:04:29;3.87;;;1.20;;
50880;SDS011;36858;47.832;-3.800;2023-04-06T18:06:56;3.33;;;0.90;;
50880;SDS011;36858;47.832;-3.800;2023-04-06T18:09:23;3.17;;;1.17;;
50880;SDS011;36858;47.832;-3.800;2023-04-06T18:11:51;4.67;;;1.27;;
50880;SDS011;36858;47.832;-3.800;2023-04-06T18:14:18;3.30;;;1.27;;
50880;SDS011;36858;47.832;-3.800;2023-04-06T18:16:45;3.97;;;0.90;;
50880;SDS011;36858;47.832;-3.800;2023-04-06T18:19:12;2.83;;;1.10;;
50880;SDS011;36858;47.832;-3.800;2023-04-06T18:21:40;1.33;;;0.80;;
50880;SDS011;36858;47.832;-3.800;2023-04-06T18:24:07;2.40;;;0.90;;
50880;SDS011;36858;47.832;-3.800;2023-04-06T18:26:40;1.97;;;0.70;;
50880;SDS011;36858;47.832;-3.800;2023-04-06T18:29:07;2.73;;;0.80;;
50880;SDS011;36858;47.832;-3.800;2023-04-06T18:31:34;4.83;;;1.17;;
50880;SDS011;36858;47.832;-3.800;2023-04-06T18:34:05;3.53;;;1.10;;
50880;SDS011;36858;47.832;-3.800;2023-04-06T18:36:32;2.20;;;0.80;;
50880;SDS011;36858;47.832;-3.800;2023-04-06T18:38:59;4.43;;;1.13;;
50880;SDS011;36858;47.832;-3.800;2023-04-06T18:41:26;4.50;;;1.20;;
50880;SDS011;36858;47.832;-3.800;2023-04-06T18:43:53;2.97;;;0.93;;
50880;SDS011;36858;47.832;-3.800;2023-04-06T18:46:20;2.27;;;0.90;;
50880;SDS011;36858;47.832;-3.800;2023-04-06T18:48:48;6.00;;;1.50;;
50880;SDS011;36858;47.832;-3.800;2023-04-06T18:51:14;6.37;;;1.37;;
50880;SDS011;36858;47.832;-3.800;2023-04-06T18:53:41;7.77;;;1.73;;
50880;SDS011;36858;47.832;-3.800;2023-04-06T18:56:12;6.20;;;1.50;;
50880;SDS011;36858;47.832;-3.800;2023-04-06T18:58:41;5.90;;;1.40;;
50880;SDS011;36858;47.832;-3.800;2023-04-06T19:01:07;5.23;;;1.20;;
50880;SDS011;36858;47.832;-3.800;2023-04-06T19:03:35;6.20;;;1.37;;
50880;SDS011;36858;47.832;-3.800;2023-04-06T19:06:05;4.97;;;1.87;;
50880;SDS011;36858;47.832;-3.800;2023-04-06T19:08:35;6.60;;;1.30;;
50880;SDS011;36858;47.832;-3.800;2023-04-06T19:11:06;6.97;;;1.60;;
50880;SDS011;36858;47.832;-3.800;2023-04-06T19:13:33;3.37;;;1.20;;
50880;SDS011;36858;47.832;-3.800;2023-04-06T19:16:00;9.07;;;1.53;;
50880;SDS011;36858;47.832;-3.800;2023-04-06T19:18:27;5.63;;;1.90;;
50880;SDS011;36858;47.832;-3.800;2023-04-06T19:20:54;5.20;;;2.00;;
50880;SDS011;36858;47.832;-3.800;2023-04-06T19:23:21;10.80;;;1.97;;
50880;SDS011;36858;47.832;-3.800;2023-04-06T19:25:48;6.40;;;1.47;;
50880;SDS011;36858;47.832;-3.800;2023-04-06T19:28:15;4.50;;;1.70;;
50880;SDS011;36858;47.832;-3.800;2023-04-06T19:30:42;6.23;;;1.70;;
50880;SDS011;36858;47.832;-3.800;2023-04-06T19:33:09;5.43;;;2.57;;
50880;SDS011;36858;47.832;-3.800;2023-04-06T19:35:36;9.90;;;5.10;;
50880;SDS011;36858;47.832;-3.800;2023-04-06T19:38:03;8.47;;;6.17;;
50880;SDS011;36858;47.832;-3.800;2023-04-06T19:40:30;13.53;;;6.87;;
50880;SDS011;36858;47.832;-3.800;2023-04-06T19:42:57;9.57;;;5.73;;
50880;SDS011;36858;47.832;-3.800;2023-04-06T19:45:24;11.77;;;4.70;;
50880;SDS011;36858;47.832;-3.800;2023-04-06T19:47:51;9.00;;;3.43;;
50880;SDS011;36858;47.832;-3.800;2023-04-06T19:50:18;6.77;;;3.13;;
50880;SDS011;36858;47.832;-3.800;2023-04-06T19:52:44;11.53;;;2.43;;
50880;SDS011;36858;47.832;-3.800;2023-04-06T19:55:11;7.17;;;2.33;;
50880;SDS011;36858;47.832;-3.800;2023-04-06T19:57:38;4.97;;;1.93;;
